Time;durP1;ratioP1;P1;durP2;ratioP2;P2;SDS_P1;SDS_P2;PMS_P1;PMS_P2;Temp;Humidity;BMP_temperature;BMP_pressure;BME280_temperature;BME280_humidity;BME280_pressure;Samples;Min_cycle;Max_cycle;Signal;HPM_P1;HPM_P2
2023/05/17 00:01:55;;;;;;;;;;;;;;;15.05;69.18;99141.47;5091548;28;19919;-41
2023/05/17 00:04:21;;;;;;;;;;;;;;;15.12;68.74;99152.03;5090973;28;20467;-41
2023/05/17 00:06:46;;;;;;;;;;;;;;;15.08;69.66;99156.25;5091215;28;19919;-41
2023/05/17 00:09:11;;;;;;;;;;;;;;;14.54;71.25;99150.59;5091876;28;19916;-41
2023/05/17 00:11:37;;;;;;;;;;;;;;;14.47;71.81;99156.94;5091400;28;20340;-40
2023/05/17 00:14:02;;;;;;;;;;;;;;;14.71;71.19;99164.00;5091273;28;19912;-40
2023/05/17 00:16:27;;;;;;;;;;;;;;;14.42;72.75;99158.72;5091679;28;20237;-41
2023/05/17 00:18:53;;;;;;;;;;;;;;;14.48;72.79;99161.22;5091576;28;20538;-41
2023/05/17 00:21:18;;;;;;;;;;;;;;;14.98;72.03;99158.78;5091449;28;19912;-40
2023/05/17 00:23:44;;;;;;;;;;;;;;;15.18;70.63;99159.06;5091355;28;20386;-41
2023/05/17 00:26:09;;;;;;;;;;;;;;;15.46;69.57;99170.69;5091090;28;19976;-41
2023/05/17 00:28:34;;;;;;;;;;;;;;;15.38;70.86;99163.06;5091267;28;19964;-40
2023/05/17 00:31:00;;;;;;;;;;;;;;;14.91;73.04;99166.16;5091247;28;20349;-41
2023/05/17 00:33:25;;;;;;;;;;;;;;;14.98;73.23;99166.81;5090838;28;19912;-40
2023/05/17 00:35:50;;;;;;;;;;;;;;;14.96;73.07;99167.06;5091256;28;19916;-40
2023/05/17 00:38:15;;;;;;;;;;;;;;;14.89;73.73;99158.41;5091104;28;19931;-41
2023/05/17 00:40:41;;;;;;;;;;;;;;;15.06;73.53;99158.38;5090398;28;19951;-41
2023/05/17 00:43:06;;;;;;;;;;;;;;;15.29;73.32;99156.50;5090410;28;19941;-41
2023/05/17 00:45:31;;;;;;;;;;;;;;;15.53;71.85;99155.19;5090348;28;19916;-41
2023/05/17 00:47:57;;;;;;;;;;;;;;;15.49;72.12;99139.88;5090822;28;19919;-41
2023/05/17 00:50:22;;;;;;;;;;;;;;;15.86;70.66;99140.06;5090760;28;20015;-41
2023/05/17 00:52:47;;;;;;;;;;;;;;;15.69;71.40;99136.59;5090915;28;19923;-41
2023/05/17 00:55:13;;;;;;;;;;;;;;;15.00;74.38;99130.69;5090486;28;19978;-41
2023/05/17 00:57:38;;;;;;;;;;;;;;;15.01;75.11;99121.59;5091036;28;20600;-41
2023/05/17 01:00:04;;;;;;;;;;;;;;;14.81;75.89;99124.81;5090461;28;19915;-41
2023/05/17 01:02:29;;;;;;;;;;;;;;;15.03;75.59;99126.72;5090222;28;19923;-41
2023/05/17 01:04:54;;;;;;;;;;;;;;;14.92;75.79;99131.09;5088642;28;19919;-41
2023/05/17 01:07:20;;;;;;;;;;;;;;;15.20;75.34;99134.69;5090431;28;19919;-41
2023/05/17 01:09:45;;;;;;;;;;;;;;;15.22;74.56;99143.31;5090832;28;20283;-41
2023/05/17 01:12:22;;;;;;;;;;;;;;;15.31;73.77;99141.81;5089952;28;19913;-41
2023/05/17 01:15:00;;;;;;;;;;;;;;;15.43;73.78;99133.63;5089696;28;19912;-41
2023/05/17 01:17:48;;;;;;;;;;;;;;;15.57;72.96;99142.09;5090476;28;19942;-40
2023/05/17 01:20:18;;;;;;;;;;;;;;;15.68;72.55;99146.53;5089208;28;19920;-41
2023/05/17 01:22:50;;;;;;;;;;;;;;;15.80;72.50;99144.56;5089943;28;19918;-41
2023/05/17 01:25:34;;;;;;;;;;;;;;;15.66;72.35;99145.97;5089490;28;20386;-42
2023/05/17 01:28:00;;;;;;;;;;;;;;;15.78;72.32;99140.50;5089781;28;19924;-44
2023/05/17 01:30:27;;;;;;;;;;;;;;;15.84;73.34;99128.78;5089500;28;19920;-42
2023/05/17 01:32:56;;;;;;;;;;;;;;;16.06;71.79;99117.97;5089642;28;19944;-42
2023/05/17 01:35:21;;;;;;;;;;;;;;;16.26;70.80;99113.84;5089664;28;19912;-42
2023/05/17 01:37:47;;;;;;;;;;;;;;;16.30;70.28;99112.28;5090176;28;19919;-41
2023/05/17 01:40:12;;;;;;;;;;;;;;;16.22;70.80;99111.69;5089599;28;19916;-42
2023/05/17 01:42:41;;;;;;;;;;;;;;;16.17;71.05;99111.63;5089682;28;19912;-42
2023/05/17 01:45:27;;;;;;;;;;;;;;;16.12;70.82;99095.47;5089137;28;19916;-42
2023/05/17 01:47:52;;;;;;;;;;;;;;;16.23;71.21;99107.91;5089391;28;20018;-42
2023/05/17 01:50:21;;;;;;;;;;;;;;;16.40;70.41;99112.34;5089469;28;20031;-42
2023/05/17 01:52:51;;;;;;;;;;;;;;;15.85;71.66;99087.44;5089832;28;19913;-42
2023/05/17 01:55:22;;;;;;;;;;;;;;;16.17;71.69;99106.25;5083065;28;20284;-42
2023/05/17 01:57:49;;;;;;;;;;;;;;;16.13;72.17;99115.09;5070796;28;19940;-42
2023/05/17 02:00:15;;;;;;;;;;;;;;;16.20;71.48;99116.50;5089298;28;19919;-42
2023/05/17 02:02:40;;;;;;;;;;;;;;;16.41;70.88;99120.16;5088963;28;19949;-42
2023/05/17 02:05:06;;;;;;;;;;;;;;;16.51;70.61;99124.00;5089522;28;19912;-42
2023/05/17 02:07:31;;;;;;;;;;;;;;;16.60;70.24;99117.03;5088140;28;19912;-42
2023/05/17 02:09:56;;;;;;;;;;;;;;;16.60;69.93;99106.28;5089421;28;20383;-42
2023/05/17 02:12:21;;;;;;;;;;;;;;;16.47;70.88;99104.88;5089206;28;19915;-42
2023/05/17 02:14:47;;;;;;;;;;;;;;;16.52;71.07;99112.16;5089344;28;19912;-42
2023/05/17 02:17:12;;;;;;;;;;;;;;;16.58;70.73;99109.28;5089582;28;19916;-42
2023/05/17 02:19:37;;;;;;;;;;;;;;;16.64;70.46;99118.16;5089360;28;19935;-42
2023/05/17 02:22:03;;;;;;;;;;;;;;;16.65;70.12;99117.09;5089134;28;19944;-42
2023/05/17 02:24:28;;;;;;;;;;;;;;;16.74;69.82;99123.59;5088873;28;20006;-42
2023/05/17 02:26:53;;;;;;;;;;;;;;;16.86;69.06;99120.75;5090083;28;19927;-42
2023/05/17 02:29:18;;;;;;;;;;;;;;;16.72;69.80;99123.06;5093173;28;19927;-42
2023/05/17 02:31:44;;;;;;;;;;;;;;;16.56;70.77;99113.25;5092966;28;19916;-42
2023/05/17 02:34:10;;;;;;;;;;;;;;;16.68;70.21;99119.25;5093250;28;19944;-43
2023/05/17 02:36:35;;;;;;;;;;;;;;;16.66;70.67;99117.88;5093228;28;20002;-42
2023/05/17 02:39:00;;;;;;;;;;;;;;;16.66;70.62;99120.56;5093118;28;20313;-42
2023/05/17 02:41:26;;;;;;;;;;;;;;;16.58;70.89;99130.75;5093048;28;19916;-42
2023/05/17 02:43:51;;;;;;;;;;;;;;;16.52;71.27;99144.38;5092422;28;20459;-42
2023/05/17 02:46:16;;;;;;;;;;;;;;;16.55;71.51;99143.88;5092946;28;19919;-42
2023/05/17 02:48:41;;;;;;;;;;;;;;;16.58;71.39;99137.97;5093146;28;19953;-42
2023/05/17 02:51:07;;;;;;;;;;;;;;;16.67;71.08;99146.38;5092917;28;20011;-42
2023/05/17 02:53:32;;;;;;;;;;;;;;;16.59;71.25;99145.78;5091146;28;19969;-42
2023/05/17 02:55:57;;;;;;;;;;;;;;;16.68;71.58;99145.31;5090841;28;20450;-42
2023/05/17 02:58:25;;;;;;;;;;;;;;;16.72;70.60;99141.84;5092668;28;19912;-42
2023/05/17 03:00:53;;;;;;;;;;;;;;;16.85;70.18;99139.81;5091674;28;19999;-42
2023/05/17 03:03:19;;;;;;;;;;;;;;;16.80;70.28;99143.25;5091332;28;19912;-42
2023/05/17 03:05:44;;;;;;;;;;;;;;;16.70;70.40;99145.88;5092791;28;19918;-42
2023/05/17 03:08:09;;;;;;;;;;;;;;;16.67;70.91;99143.69;5092497;28;19994;-42
2023/05/17 03:10:35;;;;;;;;;;;;;;;16.76;70.54;99153.69;5092635;28;20379;-42
2023/05/17 03:13:00;;;;;;;;;;;;;;;16.79;70.51;99157.75;5091686;28;19959;-42
2023/05/17 03:15:28;;;;;;;;;;;;;;;16.68;71.08;99164.09;5092402;28;19938;-42
2023/05/17 03:17:53;;;;;;;;;;;;;;;16.41;71.73;99165.81;5092484;28;19919;-42
2023/05/17 03:20:19;;;;;;;;;;;;;;;16.33;71.88;99179.66;5090570;28;19916;-42
2023/05/17 03:22:44;;;;;;;;;;;;;;;16.43;71.39;99168.25;5092205;28;19984;-42
2023/05/17 03:25:09;;;;;;;;;;;;;;;16.27;71.73;99178.00;5092164;28;19912;-41
2023/05/17 03:27:35;;;;;;;;;;;;;;;15.79;75.03;99174.31;5090352;28;19924;-47
2023/05/17 03:30:00;;;;;;;;;;;;;;;16.00;74.60;99178.81;5092073;28;20360;-42
2023/05/17 03:32:26;;;;;;;;;;;;;;;15.73;75.23;99177.97;5092316;28;20308;-42
2023/05/17 03:34:51;;;;;;;;;;;;;;;15.76;83.66;99172.97;5092101;28;20349;-42
2023/05/17 03:37:16;;;;;;;;;;;;;;;15.62;76.53;99182.41;5092020;28;19912;-42
2023/05/17 03:39:41;;;;;;;;;;;;;;;15.51;76.71;99189.50;5091145;28;20014;-43
2023/05/17 03:42:07;;;;;;;;;;;;;;;15.95;75.65;99181.44;5086381;28;20276;-42
2023/05/17 03:44:32;;;;;;;;;;;;;;;16.23;73.17;99185.75;5070987;28;19958;-45
2023/05/17 03:46:58;;;;;;;;;;;;;;;15.90;74.96;99184.09;5071119;28;19970;-42
2023/05/17 03:49:23;;;;;;;;;;;;;;;15.70;75.85;99195.38;5070760;28;19924;-42
2023/05/17 03:51:48;;;;;;;;;;;;;;;15.84;75.21;99187.78;5070634;28;19913;-42
2023/05/17 03:54:13;;;;;;;;;;;;;;;15.89;75.27;99189.72;5070546;28;19931;-43
2023/05/17 03:56:39;;;;;;;;;;;;;;;16.03;73.65;99169.47;5070550;28;19913;-42
2023/05/17 03:59:04;;;;;;;;;;;;;;;16.04;74.95;99184.50;5070294;28;19935;-43
2023/05/17 04:01:29;;;;;;;;;;;;;;;16.24;73.35;99183.91;5070551;28;20003;-42
2023/05/17 04:03:55;;;;;;;;;;;;;;;16.38;72.97;99182.41;5071630;28;19986;-44
2023/05/17 04:06:20;;;;;;;;;;;;;;;15.92;74.69;99189.22;5090540;28;20454;-41
2023/05/17 04:08:45;;;;;;;;;;;;;;;16.01;74.90;99191.19;5090695;28;19922;-41
2023/05/17 04:11:12;;;;;;;;;;;;;;;16.51;76.55;99189.25;5090358;28;19915;-42
2023/05/17 04:13:41;;;;;;;;;;;;;;;16.54;73.79;99193.28;5090537;28;20356;-43
2023/05/17 04:16:07;;;;;;;;;;;;;;;16.76;72.72;99196.69;5090927;28;20000;-42
2023/05/17 04:18:33;;;;;;;;;;;;;;;16.93;71.86;99195.78;5091147;28;20480;-43
2023/05/17 04:20:59;;;;;;;;;;;;;;;16.92;71.61;99202.19;5091222;28;20275;-44
2023/05/17 04:23:25;;;;;;;;;;;;;;;17.15;70.95;99201.00;5091246;28;20363;-43
2023/05/17 04:25:50;;;;;;;;;;;;;;;17.30;70.48;99195.72;5091273;28;19935;-42
2023/05/17 04:28:16;;;;;;;;;;;;;;;17.12;71.05;99193.47;5090868;28;20053;-43
2023/05/17 04:30:42;;;;;;;;;;;;;;;17.08;71.78;99195.06;5090999;28;20015;-42
2023/05/17 04:33:07;;;;;;;;;;;;;;;17.23;71.25;99194.31;5090572;28;20053;-44
2023/05/17 04:35:32;;;;;;;;;;;;;;;17.15;71.13;99192.94;5090719;28;19916;-42
2023/05/17 04:37:57;;;;;;;;;;;;;;;16.96;71.01;99189.84;5090820;28;20015;-42
2023/05/17 04:40:23;;;;;;;;;;;;;;;17.03;70.81;99184.28;5090232;28;20340;-42
2023/05/17 04:42:48;;;;;;;;;;;;;;;17.11;70.38;99179.19;5089821;28;19920;-42
2023/05/17 04:45:15;;;;;;;;;;;;;;;17.41;69.00;99177.75;5090140;28;19919;-42
2023/05/17 04:47:40;;;;;;;;;;;;;;;17.49;68.47;99177.25;5089109;28;19916;-42
2023/05/17 04:50:05;;;;;;;;;;;;;;;17.31;69.52;99177.72;5088276;28;19912;-42
2023/05/17 04:52:31;;;;;;;;;;;;;;;17.04;71.33;99177.81;5088377;28;19916;-41
2023/05/17 04:54:56;;;;;;;;;;;;;;;16.77;73.89;99179.50;5088942;28;19912;-44
2023/05/17 04:57:22;;;;;;;;;;;;;;;16.86;73.76;99181.75;5086954;28;20427;-43
2023/05/17 04:59:47;;;;;;;;;;;;;;;17.14;73.02;99178.69;5088639;28;19960;-42
2023/05/17 05:02:13;;;;;;;;;;;;;;;16.94;73.09;99186.63;5089713;28;19965;-41
2023/05/17 05:04:38;;;;;;;;;;;;;;;17.33;72.16;99180.94;5089733;28;20379;-41
2023/05/17 05:07:04;;;;;;;;;;;;;;;17.22;72.57;99190.84;5089626;28;19915;-42
2023/05/17 05:09:29;;;;;;;;;;;;;;;16.88;73.71;99195.72;5090137;28;20072;-42
2023/05/17 05:11:55;;;;;;;;;;;;;;;16.97;74.36;99194.97;5090361;28;19923;-42
2023/05/17 05:14:20;;;;;;;;;;;;;;;17.08;74.23;99198.56;5089906;28;20440;-42
2023/05/17 05:16:45;;;;;;;;;;;;;;;16.95;74.83;99199.00;5089721;28;19912;-41
2023/05/17 05:19:11;;;;;;;;;;;;;;;16.90;75.24;99198.97;5089744;28;20442;-42
2023/05/17 05:21:36;;;;;;;;;;;;;;;17.49;73.45;99197.97;5089500;28;19912;-42
2023/05/17 05:24:03;;;;;;;;;;;;;;;17.80;72.13;99201.59;5089793;28;20022;-41
2023/05/17 05:26:28;;;;;;;;;;;;;;;18.21;70.72;99201.72;5089705;28;20007;-40
2023/05/17 05:28:53;;;;;;;;;;;;;;;18.59;69.17;99206.88;5089243;28;20015;-42
2023/05/17 05:31:20;;;;;;;;;;;;;;;18.83;68.19;99193.69;5088640;28;20144;-41
2023/05/17 05:33:46;;;;;;;;;;;;;;;19.12;67.59;99189.31;5089574;28;19916;-36
2023/05/17 05:36:11;;;;;;;;;;;;;;;19.28;66.44;99189.28;5089406;28;20413;-37
2023/05/17 05:38:36;;;;;;;;;;;;;;;19.30;67.98;99197.91;5089531;28;19916;-36
2023/05/17 05:41:02;;;;;;;;;;;;;;;19.40;67.93;99199.75;5089533;28;19919;-36
2023/05/17 05:43:27;;;;;;;;;;;;;;;19.58;65.96;99204.56;5089787;28;19912;-38
2023/05/17 05:45:52;;;;;;;;;;;;;;;19.64;65.02;99205.34;5089999;28;20412;-37
2023/05/17 05:48:17;;;;;;;;;;;;;;;19.30;65.23;99211.41;5089837;28;20372;-36
2023/05/17 05:50:43;;;;;;;;;;;;;;;19.16;65.68;99204.97;5089489;28;19912;-36
2023/05/17 05:53:08;;;;;;;;;;;;;;;19.39;65.47;99207.06;5089474;28;19912;-36
2023/05/17 05:55:34;;;;;;;;;;;;;;;19.34;65.47;99204.38;5089790;28;19920;-38
2023/05/17 05:57:59;;;;;;;;;;;;;;;19.35;64.98;99197.91;5089942;28;19935;-36
2023/05/17 06:00:25;;;;;;;;;;;;;;;19.17;64.85;99193.88;5089792;28;19948;-36
2023/05/17 06:02:52;;;;;;;;;;;;;;;19.12;65.39;99196.63;5092760;28;20016;-36
2023/05/17 06:05:17;;;;;;;;;;;;;;;18.84;66.60;99188.03;5093774;28;20341;-35
2023/05/17 06:07:42;;;;;;;;;;;;;;;18.81;67.59;99188.59;5093741;28;20004;-36
2023/05/17 06:10:08;;;;;;;;;;;;;;;18.76;68.48;99186.66;5094401;28;20407;-36
2023/05/17 06:12:33;;;;;;;;;;;;;;;18.78;67.84;99186.38;5094092;28;19916;-36
2023/05/17 06:14:58;;;;;;;;;;;;;;;18.64;70.02;99191.53;5093991;28;20349;-36
2023/05/17 06:17:24;;;;;;;;;;;;;;;18.90;68.68;99200.41;5093872;28;20007;-36
2023/05/17 06:19:49;;;;;;;;;;;;;;;18.92;67.84;99209.06;5093769;28;19984;-36
2023/05/17 06:22:15;;;;;;;;;;;;;;;19.47;65.97;99219.97;5093974;28;19912;-36
2023/05/17 06:24:40;;;;;;;;;;;;;;;19.66;65.26;99219.38;5093898;28;19912;-35
2023/05/17 06:27:06;;;;;;;;;;;;;;;19.95;63.69;99222.22;5093614;28;19938;-36
2023/05/17 06:29:31;;;;;;;;;;;;;;;20.16;63.08;99220.22;5093867;28;19966;-36
2023/05/17 06:31:58;;;;;;;;;;;;;;;20.40;61.61;99201.44;5093654;28;19912;-37
2023/05/17 06:34:23;;;;;;;;;;;;;;;20.48;61.65;99200.81;5093311;28;19958;-36
2023/05/17 06:36:49;;;;;;;;;;;;;;;20.61;59.99;99206.72;5093135;28;19955;-36
2023/05/17 06:39:14;;;;;;;;;;;;;;;20.56;60.72;99201.31;5093577;28;19912;-36
2023/05/17 06:41:39;;;;;;;;;;;;;;;20.55;60.43;99203.22;5093482;28;20003;-36
2023/05/17 06:44:05;;;;;;;;;;;;;;;20.96;59.51;99210.19;5093369;28;19938;-36
2023/05/17 06:46:30;;;;;;;;;;;;;;;21.23;59.38;99215.88;5093266;28;20376;-36
2023/05/17 06:48:55;;;;;;;;;;;;;;;21.26;58.92;99217.19;5093528;28;19920;-36
2023/05/17 06:51:21;;;;;;;;;;;;;;;21.54;58.58;99225.59;5093175;28;19919;-36
2023/05/17 06:53:46;;;;;;;;;;;;;;;21.43;58.33;99230.28;5093199;28;19912;-35
2023/05/17 06:56:11;;;;;;;;;;;;;;;21.54;57.86;99231.00;5093162;28;20336;-36
2023/05/17 06:58:36;;;;;;;;;;;;;;;21.73;57.42;99234.56;5093063;28;19918;-37
2023/05/17 07:01:02;;;;;;;;;;;;;;;21.47;57.61;99242.19;5093182;28;19912;-36
2023/05/17 07:03:27;;;;;;;;;;;;;;;21.76;57.35;99246.72;5093178;28;20007;-36
2023/05/17 07:05:52;;;;;;;;;;;;;;;21.79;56.62;99252.34;5093497;28;19973;-36
2023/05/17 07:08:18;;;;;;;;;;;;;;;21.74;56.27;99251.63;5092880;28;19912;-36
2023/05/17 07:10:43;;;;;;;;;;;;;;;21.80;56.23;99255.88;5092984;28;19927;-36
2023/05/17 07:13:08;;;;;;;;;;;;;;;21.93;56.45;99265.19;5091938;28;19920;-36
2023/05/17 07:15:34;;;;;;;;;;;;;;;21.95;56.48;99268.41;5092529;28;19955;-36
2023/05/17 07:17:59;;;;;;;;;;;;;;;22.05;56.06;99271.00;5092422;28;19912;-36
2023/05/17 07:20:24;;;;;;;;;;;;;;;22.01;56.09;99264.56;5092241;28;19912;-36
2023/05/17 07:22:50;;;;;;;;;;;;;;;21.98;55.59;99265.94;5092459;28;19912;-36
2023/05/17 07:25:17;;;;;;;;;;;;;;;21.93;55.83;99260.56;5092238;28;19958;-36
2023/05/17 07:27:42;;;;;;;;;;;;;;;21.23;56.52;99248.34;5092304;28;19928;-37
2023/05/17 07:30:08;;;;;;;;;;;;;;;21.35;56.83;99249.88;5091898;28;19922;-36
2023/05/17 07:32:33;;;;;;;;;;;;;;;21.56;56.25;99250.47;5092166;28;19939;-36
2023/05/17 07:35:00;;;;;;;;;;;;;;;21.63;55.82;99256.34;5091637;28;19965;-34
2023/05/17 07:37:26;;;;;;;;;;;;;;;21.47;56.64;99253.00;5091646;28;19912;-35
2023/05/17 07:39:51;;;;;;;;;;;;;;;21.56;56.60;99253.19;5091693;28;19942;-37
2023/05/17 07:42:16;;;;;;;;;;;;;;;21.55;56.58;99244.28;5091580;28;19912;-37
2023/05/17 07:44:42;;;;;;;;;;;;;;;21.57;56.58;99244.78;5091703;28;19912;-36
2023/05/17 07:47:07;;;;;;;;;;;;;;;21.15;57.44;99229.22;5091957;28;20030;-36
2023/05/17 07:49:32;;;;;;;;;;;;;;;20.57;60.20;99225.38;5092483;28;19923;-37
2023/05/17 07:51:58;;;;;;;;;;;;;;;20.44;62.33;99234.09;5092511;28;19919;-36
2023/05/17 07:54:26;;;;;;;;;;;;;;;20.43;63.42;99241.41;5092248;28;20447;-36
2023/05/17 07:56:53;;;;;;;;;;;;;;;20.57;63.34;99243.50;5092557;28;19919;-36
2023/05/17 07:59:20;;;;;;;;;;;;;;;20.72;61.93;99251.50;5092577;28;19976;-36
2023/05/17 08:01:45;;;;;;;;;;;;;;;20.72;63.21;99256.13;5092427;28;19913;-35
2023/05/17 08:04:10;;;;;;;;;;;;;;;20.83;63.12;99247.63;5092094;28;19960;-36
2023/05/17 08:06:35;;;;;;;;;;;;;;;20.86;63.09;99252.47;5092317;28;19912;-36
2023/05/17 08:09:01;;;;;;;;;;;;;;;20.95;62.46;99259.97;5092076;28;20054;-36
2023/05/17 08:11:27;;;;;;;;;;;;;;;20.95;63.17;99246.47;5092049;28;19912;-36
2023/05/17 08:13:52;;;;;;;;;;;;;;;20.83;64.22;99244.13;5091986;28;19958;-36
2023/05/17 08:16:17;;;;;;;;;;;;;;;20.88;63.59;99242.16;5092224;28;20394;-36
2023/05/17 08:18:43;;;;;;;;;;;;;;;20.92;63.82;99230.78;5092294;28;19921;-36
2023/05/17 08:21:08;;;;;;;;;;;;;;;20.91;64.11;99230.00;5090681;28;20438;-36
2023/05/17 08:23:34;;;;;;;;;;;;;;;20.80;64.58;99234.66;5092107;28;19916;-36
2023/05/17 08:25:59;;;;;;;;;;;;;;;20.67;64.40;99232.63;5091713;28;20105;-36
2023/05/17 08:28:24;;;;;;;;;;;;;;;20.63;63.56;99226.16;5092096;28;19924;-35
2023/05/17 08:30:49;;;;;;;;;;;;;;;20.64;64.14;99225.88;5091842;28;20007;-36
2023/05/17 08:33:15;;;;;;;;;;;;;;;20.72;64.19;99226.38;5091737;28;19912;-35
2023/05/17 08:35:40;;;;;;;;;;;;;;;20.63;65.86;99226.16;5092027;28;19955;-35
2023/05/17 08:38:05;;;;;;;;;;;;;;;20.58;65.37;99224.28;5091939;28;19916;-35
2023/05/17 08:40:31;;;;;;;;;;;;;;;20.56;65.28;99223.78;5091836;28;19969;-35
2023/05/17 08:42:56;;;;;;;;;;;;;;;20.57;65.87;99240.78;5091372;28;19913;-36
2023/05/17 08:45:22;;;;;;;;;;;;;;;20.42;67.23;99257.91;5091570;28;19912;-35
2023/05/17 08:47:47;;;;;;;;;;;;;;;20.33;66.48;99260.38;5091318;28;19912;-35
2023/05/17 08:50:13;;;;;;;;;;;;;;;20.25;66.74;99263.69;5091565;28;19916;-36
2023/05/17 08:52:40;;;;;;;;;;;;;;;20.20;67.44;99263.69;5091691;28;19951;-36
2023/05/17 08:55:07;;;;;;;;;;;;;;;20.28;67.68;99266.63;5091497;28;19927;-35
2023/05/17 08:57:33;;;;;;;;;;;;;;;20.28;68.14;99263.94;5091486;28;19912;-34
2023/05/17 09:00:05;;;;;;;;;;;;;;;20.35;67.80;99265.50;5091792;28;20061;-37
2023/05/17 09:02:31;;;;;;;;;;;;;;;20.39;67.26;99266.56;5091307;28;19916;-37
2023/05/17 09:04:57;;;;;;;;;;;;;;;20.42;67.28;99266.81;5090932;28;20030;-35
2023/05/17 09:07:22;;;;;;;;;;;;;;;20.35;67.68;99265.50;5090360;28;19995;-35
2023/05/17 09:09:52;;;;;;;;;;;;;;;20.28;68.15;99263.13;5090154;28;19934;-36
2023/05/17 09:12:18;;;;;;;;;;;;;;;20.16;68.44;99258.03;5090408;28;20056;-35
2023/05/17 09:14:43;;;;;;;;;;;;;;;19.97;69.57;99254.38;5090507;28;19963;-37
2023/05/17 09:17:12;;;;;;;;;;;;;;;19.91;70.10;99254.41;5089935;28;19924;-35
2023/05/17 09:19:42;;;;;;;;;;;;;;;19.94;70.20;99244.13;5090511;28;20326;-35
2023/05/17 09:22:07;;;;;;;;;;;;;;;19.84;70.31;99240.41;5090636;28;19912;-35
2023/05/17 09:24:32;;;;;;;;;;;;;;;19.82;70.68;99242.56;5091160;28;19916;-35
2023/05/17 09:27:02;;;;;;;;;;;;;;;19.80;70.62;99242.03;5090981;28;19995;-35
2023/05/17 09:29:29;;;;;;;;;;;;;;;19.42;72.40;99233.50;5090758;28;19921;-35
2023/05/17 09:31:54;;;;;;;;;;;;;;;19.35;72.71;99227.56;5090960;28;19930;-35
2023/05/17 09:34:20;;;;;;;;;;;;;;;19.15;73.34;99231.13;5091029;28;20287;-36
2023/05/17 09:36:45;;;;;;;;;;;;;;;19.22;73.44;99231.66;5090272;28;19912;-35
2023/05/17 09:39:11;;;;;;;;;;;;;;;18.83;75.51;99239.50;5090940;28;19942;-35
2023/05/17 09:41:41;;;;;;;;;;;;;;;18.93;75.41;99244.91;5090561;28;19961;-35
2023/05/17 09:44:10;;;;;;;;;;;;;;;18.91;75.22;99255.16;5091036;28;19912;-36
2023/05/17 09:46:37;;;;;;;;;;;;;;;18.93;75.31;99253.78;5090372;28;19961;-36
2023/05/17 09:49:03;;;;;;;;;;;;;;;18.84;76.26;99258.09;5091136;28;19916;-36
2023/05/17 09:51:35;;;;;;;;;;;;;;;18.86;77.09;99241.66;5091030;28;19955;-36
2023/05/17 09:54:00;;;;;;;;;;;;;;;18.70;77.07;99246.22;5090652;28;19919;-36
2023/05/17 09:56:30;;;;;;;;;;;;;;;18.23;77.90;99247.22;5091030;28;20299;-35
2023/05/17 09:58:56;;;;;;;;;;;;;;;17.79;80.49;99241.13;5090836;28;19912;-36
2023/05/17 10:01:24;;;;;;;;;;;;;;;17.45;83.20;99248.78;5091103;28;19938;-37
2023/05/17 10:03:50;;;;;;;;;;;;;;;17.82;80.81;99247.06;5090631;28;19934;-36
2023/05/17 10:06:17;;;;;;;;;;;;;;;18.27;78.75;99249.13;5090478;28;20324;-36
2023/05/17 10:08:46;;;;;;;;;;;;;;;18.42;77.30;99240.25;5090326;28;19940;-36
2023/05/17 10:11:11;;;;;;;;;;;;;;;18.59;75.67;99237.31;5090173;28;19912;-35
2023/05/17 10:13:42;;;;;;;;;;;;;;;18.97;74.36;99239.78;5089983;28;19918;-35
2023/05/17 10:16:09;;;;;;;;;;;;;;;18.98;74.40;99242.19;5090069;28;19912;-35
2023/05/17 10:18:35;;;;;;;;;;;;;;;18.95;73.98;99232.75;5090479;28;20002;-35
2023/05/17 10:21:00;;;;;;;;;;;;;;;19.10;73.53;99226.53;5090533;28;19974;-36
2023/05/17 10:23:26;;;;;;;;;;;;;;;19.21;72.73;99231.91;5090532;28;19912;-35
2023/05/17 10:25:52;;;;;;;;;;;;;;;19.16;73.54;99229.25;5090598;28;19924;-35
2023/05/17 10:28:19;;;;;;;;;;;;;;;18.97;73.97;99224.41;5090539;28;20014;-35
2023/05/17 10:30:44;;;;;;;;;;;;;;;19.12;73.81;99232.47;5090432;28;19939;-37
2023/05/17 10:33:14;;;;;;;;;;;;;;;19.31;73.64;99213.03;5090872;28;20015;-35
2023/05/17 10:35:40;;;;;;;;;;;;;;;19.42;73.99;99219.19;5090002;28;19912;-37
2023/05/17 10:38:05;;;;;;;;;;;;;;;19.48;74.82;99216.22;5090462;28;19919;-35
2023/05/17 10:40:31;;;;;;;;;;;;;;;19.48;73.80;99213.50;5090785;28;19920;-35
2023/05/17 10:42:57;;;;;;;;;;;;;;;19.41;74.63;99212.19;5090526;28;19935;-36
2023/05/17 10:45:24;;;;;;;;;;;;;;;19.14;73.85;99224.13;5090644;28;19923;-36
2023/05/17 10:47:53;;;;;;;;;;;;;;;19.30;72.47;99222.97;5091447;28;19912;-37
2023/05/17 10:50:22;;;;;;;;;;;;;;;19.23;73.09;99219.78;5094222;28;19973;-37
2023/05/17 10:52:48;;;;;;;;;;;;;;;18.91;74.35;99231.69;5094125;28;19977;-43
2023/05/17 10:55:17;;;;;;;;;;;;;;;18.91;75.50;99225.50;5094198;28;19916;-44
2023/05/17 10:57:43;;;;;;;;;;;;;;;19.08;75.26;99220.63;5093652;28;19912;-45
2023/05/17 11:00:18;;;;;;;;;;;;;;;18.83;75.97;99226.84;5094189;28;20296;-44
2023/05/17 11:02:43;;;;;;;;;;;;;;;19.10;75.23;99220.34;5092167;28;19947;-43
2023/05/17 11:05:21;;;;;;;;;;;;;;;19.05;74.21;99220.34;5090740;28;20349;-44
2023/05/17 11:07:47;;;;;;;;;;;;;;;19.29;72.31;99217.88;5091274;28;20400;-45
2023/05/17 11:10:13;;;;;;;;;;;;;;;19.29;73.44;99221.38;5092891;28;19916;-43
2023/05/17 11:12:43;;;;;;;;;;;;;;;19.46;72.75;99215.69;5093536;28;19924;-46
2023/05/17 11:15:12;;;;;;;;;;;;;;;19.57;73.00;99204.84;5093339;28;19912;-45
2023/05/17 11:17:45;;;;;;;;;;;;;;;19.72;72.63;99197.53;5092348;28;20427;-45
2023/05/17 11:20:10;;;;;;;;;;;;;;;19.87;72.34;99193.13;5091568;28;19912;-43
2023/05/17 11:22:41;;;;;;;;;;;;;;;20.05;72.34;99205.19;5093380;28;19924;-44
2023/05/17 11:25:10;;;;;;;;;;;;;;;20.15;71.64;99205.13;5091172;28;19919;-44
2023/05/17 11:27:43;;;;;;;;;;;;;;;20.24;71.45;99200.75;5093034;28;19963;-44
2023/05/17 11:30:29;;;;;;;;;;;;;;;20.30;71.50;99188.00;5089582;28;19931;-47
2023/05/17 11:33:01;;;;;;;;;;;;;;;20.41;70.60;99196.84;5092879;28;19927;-44
2023/05/17 11:35:28;;;;;;;;;;;;;;;20.39;70.82;99199.00;5090929;28;19912;-46
2023/05/17 11:38:12;;;;;;;;;;;;;;;20.44;70.01;99199.78;5093129;28;19916;-43
2023/05/17 11:40:38;;;;;;;;;;;;;;;20.50;69.94;99195.16;5092258;28;19935;-44
2023/05/17 11:43:17;;;;;;;;;;;;;;;20.47;70.23;99184.91;5095484;28;19972;-43
2023/05/17 11:45:49;;;;;;;;;;;;;;;20.55;70.56;99181.59;5106934;28;19927;-43
2023/05/17 11:48:15;;;;;;;;;;;;;;;20.63;70.05;99180.22;5113811;28;19912;-43
2023/05/17 11:50:42;;;;;;;;;;;;;;;20.60;69.98;99181.59;5114278;28;20010;-44
2023/05/17 11:53:08;;;;;;;;;;;;;;;20.68;69.83;99183.69;5113680;28;20410;-42
2023/05/17 11:55:38;;;;;;;;;;;;;;;20.67;69.41;99182.06;5098586;28;19954;-41
2023/05/17 11:58:05;;;;;;;;;;;;;;;20.64;69.55;99185.34;5093289;28;19927;-43
2023/05/17 12:00:31;;;;;;;;;;;;;;;20.44;70.42;99177.38;5092459;28;20012;-43
2023/05/17 12:02:56;;;;;;;;;;;;;;;20.43;70.62;99176.56;5093347;28;20380;-42
2023/05/17 12:05:22;;;;;;;;;;;;;;;20.29;71.46;99170.19;5093307;28;19920;-43
2023/05/17 12:07:49;;;;;;;;;;;;;;;20.23;71.44;99174.81;5097165;28;20280;-44
2023/05/17 12:10:14;;;;;;;;;;;;;;;20.05;72.75;99180.91;5111543;28;20002;-42
2023/05/17 12:12:40;;;;;;;;;;;;;;;20.09;72.56;99176.53;5113530;28;19974;-42
2023/05/17 12:15:06;;;;;;;;;;;;;;;20.03;73.07;99167.66;5113044;28;20520;-43
2023/05/17 12:17:37;;;;;;;;;;;;;;;19.60;75.16;99172.72;5106388;28;20395;-42
2023/05/17 12:20:06;;;;;;;;;;;;;;;19.44;76.10;99163.06;5092753;28;19991;-42
2023/05/17 12:22:32;;;;;;;;;;;;;;;19.61;74.71;99160.84;5092781;28;20293;-42
2023/05/17 12:24:57;;;;;;;;;;;;;;;19.24;76.56;99177.44;5092624;28;19912;-42
2023/05/17 12:27:26;;;;;;;;;;;;;;;19.46;75.87;99177.09;5092264;28;19920;-43
2023/05/17 12:29:51;;;;;;;;;;;;;;;19.42;75.37;99184.09;5089688;28;19981;-35
2023/05/17 12:32:17;;;;;;;;;;;;;;;19.35;75.67;99176.31;5086018;28;20341;-35
2023/05/17 12:34:42;;;;;;;;;;;;;;;19.27;75.15;99179.59;5095809;28;19912;-35
2023/05/17 12:37:09;;;;;;;;;;;;;;;19.47;74.81;99181.41;5105104;28;19912;-36
2023/05/17 12:39:34;;;;;;;;;;;;;;;19.59;74.91;99173.81;5104127;28;19944;-35
2023/05/17 12:42:00;;;;;;;;;;;;;;;19.64;74.90;99178.38;5091777;28;19938;-35
2023/05/17 12:44:25;;;;;;;;;;;;;;;19.71;74.64;99176.19;5091621;28;19919;-35